Time;durP1;ratioP1;P1;durP2;ratioP2;P2;SDS_P1;SDS_P2;PMS_P1;PMS_P2;Temp;Humidity;BMP_temperature;BMP_pressure;BME280_temperature;BME280_humidity;BME280_pressure;Samples;Min_cycle;Max_cycle;Signal;HPM_P1;HPM_P2
2021/08/04 00:00:28;;;;;;;8.80;7.93;;;;;22.50;100214.00;;;;2062278;28;20227;-56
2021/08/04 00:01:28;;;;;;;9.10;8.20;;;;;22.50;100213.00;;;;2064740;28;20694;-56
2021/08/04 00:02:28;;;;;;;7.90;7.10;;;;;22.50;100224.00;;;;2070809;28;20229;-56
2021/08/04 00:03:29;;;;;;;9.10;8.20;;;;;22.50;100218.00;;;;2070243;28;20297;-55
2021/08/04 00:04:29;;;;;;;7.73;6.97;;;;;22.50;100216.00;;;;2070775;28;20687;-56
2021/08/04 00:05:30;;;;;;;8.40;7.57;;;;;22.50;100223.00;;;;2070750;28;20268;-56
2021/08/04 00:06:30;;;;;;;7.90;7.10;;;;;22.50;100215.00;;;;2066207;28;20218;-54
2021/08/04 00:07:31;;;;;;;7.70;6.97;;;;;22.40;100224.00;;;;2061500;28;20301;-56
2021/08/04 00:08:31;;;;;;;11.37;8.00;;;;;22.50;100222.00;;;;2061798;28;20219;-56
2021/08/04 00:09:32;;;;;;;8.73;6.67;;;;;22.40;100221.00;;;;2062625;28;20863;-58
2021/08/04 00:10:32;;;;;;;9.43;6.80;;;;;22.40;100222.00;;;;2063525;28;20412;-58
2021/08/04 00:11:32;;;;;;;8.23;7.13;;;;;22.40;100218.00;;;;2061519;28;20707;-55
2021/08/04 00:12:33;;;;;;;10.23;7.17;;;;;22.50;100215.00;;;;2065753;28;20234;-56
2021/08/04 00:13:33;;;;;;;7.67;6.97;;;;;22.50;100219.00;;;;2064969;28;20242;-56
2021/08/04 00:14:34;;;;;;;7.00;6.33;;;;;22.50;100218.00;;;;2061538;28;20218;-57
2021/08/04 00:15:34;;;;;;;7.77;6.60;;;;;22.50;100213.00;;;;2060603;28;20706;-55
2021/08/04 00:16:35;;;;;;;8.13;6.50;;;;;22.50;100215.00;;;;2064898;28;20222;-54
2021/08/04 00:17:35;;;;;;;10.07;6.63;;;;;22.50;100215.00;;;;2070076;28;20232;-54
2021/08/04 00:18:35;;;;;;;7.93;6.13;;;;;22.50;100211.00;;;;2069730;28;20276;-58
2021/08/04 00:19:36;;;;;;;6.87;6.13;;;;;22.50;100217.00;;;;2070145;28;20233;-58
2021/08/04 00:20:36;;;;;;;8.50;5.90;;;;;22.50;100214.00;;;;2069338;28;20221;-58
2021/08/04 00:21:37;;;;;;;6.47;5.77;;;;;22.40;100214.00;;;;2070193;28;20776;-57
2021/08/04 00:22:37;;;;;;;7.50;6.27;;;;;22.50;100210.00;;;;2070096;28;20309;-57
2021/08/04 00:23:38;;;;;;;6.10;5.50;;;;;22.50;100215.00;;;;2069900;28;20680;-57
2021/08/04 00:24:38;;;;;;;6.63;5.80;;;;;22.50;100215.00;;;;2070091;28;20230;-56
2021/08/04 00:25:38;;;;;;;6.57;5.97;;;;;22.50;100218.00;;;;2062836;28;20211;-55
2021/08/04 00:26:39;;;;;;;6.30;5.70;;;;;22.50;100213.00;;;;2060591;28;20234;-56
2021/08/04 00:27:39;;;;;;;6.00;5.40;;;;;22.50;100214.00;;;;2061411;28;20250;-57
2021/08/04 00:28:40;;;;;;;8.83;5.30;;;;;22.50;100215.00;;;;2061651;28;20626;-56
2021/08/04 00:29:40;;;;;;;6.40;5.10;;;;;22.50;100214.00;;;;2061457;28;20219;-56
2021/08/04 00:30:40;;;;;;;9.53;5.37;;;;;22.50;100212.00;;;;2061829;28;20718;-54
2021/08/04 00:31:41;;;;;;;5.70;5.10;;;;;22.50;100215.00;;;;2062022;28;20265;-56
2021/08/04 00:32:41;;;;;;;8.47;5.57;;;;;22.40;100216.00;;;;2061154;28;20219;-56
2021/08/04 00:33:42;;;;;;;6.83;5.30;;;;;22.50;100213.00;;;;2061208;28;20223;-55
2021/08/04 00:34:42;;;;;;;5.77;5.00;;;;;22.60;100214.00;;;;2062449;28;20625;-55
2021/08/04 00:35:43;;;;;;;5.37;4.60;;;;;22.40;100223.00;;;;2061414;28;20218;-55
2021/08/04 00:36:43;;;;;;;7.00;4.30;;;;;22.20;100217.00;;;;2061204;28;20219;-57
2021/08/04 00:37:44;;;;;;;4.67;4.27;;;;;21.90;100213.00;;;;2061459;28;20838;-56
2021/08/04 00:38:45;;;;;;;4.90;4.40;;;;;22.20;100210.00;;;;2061596;28;20211;-55
2021/08/04 00:39:45;;;;;;;5.00;4.35;;;;;22.10;100221.00;;;;2062538;28;20215;-54
2021/08/04 00:40:46;;;;;;;11.83;5.17;;;;;22.20;100220.00;;;;2066620;28;20214;-57
2021/08/04 00:41:47;;;;;;;5.35;3.80;;;;;22.30;100214.00;;;;2062614;28;20285;-55
2021/08/04 00:42:47;;;;;;;6.43;3.87;;;;;22.40;100214.00;;;;2062140;28;20215;-57
2021/08/04 00:43:47;;;;;;;6.50;3.87;;;;;22.40;100214.00;;;;2066331;28;20214;-56
2021/08/04 00:44:48;;;;;;;6.33;4.10;;;;;22.40;100210.00;;;;2064133;28;20747;-57
2021/08/04 00:45:48;;;;;;;4.23;3.83;;;;;22.40;100210.00;;;;2064197;28;20614;-57
2021/08/04 00:46:49;;;;;;;4.50;4.10;;;;;22.40;100210.00;;;;2064261;28;20215;-56
2021/08/04 00:47:49;;;;;;;4.63;3.40;;;;;22.50;100209.00;;;;2063483;28;20214;-56
2021/08/04 00:48:50;;;;;;;4.23;3.60;;;;;22.50;100213.00;;;;2064212;28;20222;-55
2021/08/04 00:49:50;;;;;;;4.33;3.73;;;;;22.50;100207.00;;;;2071623;28;20206;-57
2021/08/04 00:50:50;;;;;;;5.70;3.90;;;;;22.50;100211.00;;;;2070122;28;20229;-54
2021/08/04 00:51:51;;;;;;;5.47;4.07;;;;;22.50;100207.00;;;;2071028;28;20711;-56
2021/08/04 00:52:51;;;;;;;3.63;3.33;;;;;22.50;100205.00;;;;2071532;28;20222;-56
2021/08/04 00:53:52;;;;;;;4.17;3.77;;;;;22.50;100209.00;;;;2071507;28;20241;-57
2021/08/04 00:54:53;;;;;;;3.73;3.40;;;;;22.50;100209.00;;;;2072171;28;20226;-55
2021/08/04 00:55:54;;;;;;;4.20;3.80;;;;;22.60;100204.00;;;;2071956;28;20218;-55
2021/08/04 00:56:54;;;;;;;6.18;4.10;;;;;22.50;100207.00;;;;2070561;28;20206;-59
2021/08/04 00:57:55;;;;;;;4.30;3.90;;;;;22.50;100208.00;;;;2063965;28;20218;-56
2021/08/04 00:58:55;;;;;;;4.40;3.30;;;;;22.50;100202.00;;;;2063901;28;20215;-56
2021/08/04 00:59:56;;;;;;;6.27;3.50;;;;;22.50;100210.00;;;;2064227;28;20226;-54
2021/08/04 01:01:00;;;;;;;5.00;3.87;;;;;22.50;100207.00;;;;2063651;28;20268;-54
2021/08/04 01:02:14;;;;;;;4.80;4.00;;;;;22.50;100204.00;;;;2068510;28;20801;-56
2021/08/04 01:03:19;;;;;;;4.18;3.78;;;;;22.50;100182.00;;;;2071765;28;20648;-55
2021/08/04 01:04:24;;;;;;;5.25;3.78;;;;;22.50;100211.00;;;;2071941;28;20269;-55
2021/08/04 01:05:41;;;;;;;3.75;3.40;;;;;22.50;100211.00;;;;2071418;28;20301;-55
2021/08/04 01:07:12;;;;;;;3.90;3.60;;;;;22.50;100209.00;;;;2070636;28;20214;-55
2021/08/04 01:08:15;;;;;;;5.07;3.40;;;;;22.50;100198.00;;;;2067384;28;20239;-55
2021/08/04 01:09:16;;;;;;;3.60;3.30;;;;;22.50;100204.00;;;;2061229;28;20225;-56
2021/08/04 01:10:27;;;;;;;4.25;3.85;;;;;22.50;100207.00;;;;2054975;28;20246;-56
2021/08/04 01:11:38;;;;;;;5.38;3.63;;;;;22.50;100206.00;;;;2068218;28;20221;-56
2021/08/04 01:13:00;;;;;;;3.75;3.42;;;;;22.50;100206.00;;;;2064085;28;20223;-56
2021/08/04 01:14:03;;;;;;;3.78;3.47;;;;;22.50;100206.00;;;;2069853;28;20224;-57
2021/08/04 01:15:04;;;;;;;7.97;3.80;;;;;22.50;100208.00;;;;2070587;28;20313;-56
2021/08/04 01:16:06;;;;;;;4.85;3.45;;;;;22.50;100212.00;;;;2054167;28;20902;-55
2021/08/04 01:17:06;;;;;;;4.10;3.35;;;;;22.50;100210.00;;;;2055575;28;20231;-57
2021/08/04 01:18:07;;;;;;;3.60;3.30;;;;;22.40;100212.00;;;;2065266;28;20583;-55
2021/08/04 01:19:28;;;;;;;4.43;3.03;;;;;22.50;100210.00;;;;2063101;28;20206;-55
2021/08/04 01:20:28;;;;;;;4.03;3.10;;;;;22.50;100200.00;;;;2071049;28;20203;-55
2021/08/04 01:21:37;;;;;;;3.43;3.20;;;;;22.50;100213.00;;;;2071465;28;20722;-56
2021/08/04 01:22:55;;;;;;;3.75;3.40;;;;;22.50;100212.00;;;;2071381;28;20218;-54
2021/08/04 01:24:25;;;;;;;4.10;3.67;;;;;22.50;100216.00;;;;2071190;28;20296;-56
2021/08/04 01:25:29;;;;;;;3.72;3.42;;;;;22.50;100215.00;;;;2062106;28;20211;-56
2021/08/04 01:26:31;;;;;;;4.47;3.13;;;;;22.50;100210.00;;;;2062989;28;20715;-57
2021/08/04 01:27:31;;;;;;;3.90;3.38;;;;;22.50;100213.00;;;;2062938;28;20214;-55
2021/08/04 01:28:43;;;;;;;3.60;3.30;;;;;22.50;100216.00;;;;2061550;28;20211;-56
2021/08/04 01:29:44;;;;;;;4.35;3.47;;;;;22.50;100203.00;;;;2076275;28;20214;-55
2021/08/04 01:30:45;;;;;;;4.00;3.43;;;;;22.50;100207.00;;;;2071012;28;20607;-55
2021/08/04 01:31:48;;;;;;;3.75;3.45;;;;;22.50;100210.00;;;;2075292;28;20276;-56
2021/08/04 01:32:48;;;;;;;4.97;3.40;;;;;22.50;100211.00;;;;2082840;28;20217;-54
2021/08/04 01:33:49;;;;;;;3.53;3.23;;;;;22.50;100163.00;;;;2063487;28;20230;-55
2021/08/04 01:34:50;;;;;;;3.50;3.20;;;;;22.50;100210.00;;;;2063525;28;20210;-56
2021/08/04 01:35:50;;;;;;;3.93;3.00;;;;;22.50;100202.00;;;;2063255;28;20227;-55
2021/08/04 01:36:51;;;;;;;3.20;3.00;;;;;22.50;100210.00;;;;2050623;28;20303;-54
2021/08/04 01:37:51;;;;;;;3.47;2.87;;;;;22.50;100200.00;;;;2050960;28;20227;-55
2021/08/04 01:38:54;;;;;;;3.97;3.20;;;;;22.50;100205.00;;;;2055096;28;20695;-56
2021/08/04 01:39:54;;;;;;;5.00;3.50;;;;;22.50;100207.00;;;;2055667;28;20219;-57
2021/08/04 01:40:55;;;;;;;4.23;3.07;;;;;22.50;100205.00;;;;2051023;28;20216;-56
2021/08/04 01:41:55;;;;;;;3.97;3.30;;;;;22.50;100201.00;;;;2061899;28;20215;-55
2021/08/04 01:42:56;;;;;;;5.50;3.53;;;;;22.40;100198.00;;;;2068115;28;20228;-55
2021/08/04 01:43:56;;;;;;;3.93;3.53;;;;;22.50;100209.00;;;;2059845;28;20211;-56
2021/08/04 01:44:56;;;;;;;4.00;3.60;;;;;22.50;100212.00;;;;2047258;28;20244;-55
2021/08/04 01:45:57;;;;;;;3.40;3.10;;;;;22.50;100214.00;;;;2055077;28;20224;-55
2021/08/04 01:46:58;;;;;;;3.60;2.97;;;;;22.50;100212.00;;;;2056373;28;20890;-55
2021/08/04 01:47:58;;;;;;;3.30;3.00;;;;;22.50;100210.00;;;;2066805;28;20469;-56
2021/08/04 01:49:00;;;;;;;3.40;3.10;;;;;22.50;100208.00;;;;2059322;28;20207;-56
2021/08/04 01:50:00;;;;;;;4.20;3.05;;;;;22.50;100205.00;;;;2066637;28;20215;-57
2021/08/04 01:51:02;;;;;;;4.13;3.33;;;;;22.50;100205.00;;;;2069501;28;20222;-56
2021/08/04 01:52:02;;;;;;;3.25;2.65;;;;;22.50;100209.00;;;;2065303;28;20688;-56
2021/08/04 01:53:03;;;;;;;3.10;2.80;;;;;22.50;100210.00;;;;2067887;28;20234;-55
2021/08/04 01:54:03;;;;;;;3.50;3.20;;;;;22.50;100206.00;;;;2064448;28;20254;-55
2021/08/04 01:55:04;;;;;;;3.37;2.80;;;;;22.50;100206.00;;;;2071149;28;20214;-55
2021/08/04 01:56:05;;;;;;;5.03;3.30;;;;;22.50;100211.00;;;;2062925;28;20305;-56
2021/08/04 01:57:05;;;;;;;3.20;2.90;;;;;22.50;100209.00;;;;2070544;28;20713;-55
2021/08/04 01:58:06;;;;;;;3.57;3.27;;;;;22.40;100210.00;;;;2065213;28;20215;-55
2021/08/04 01:59:06;;;;;;;3.77;3.37;;;;;22.40;100213.00;;;;2066802;28;20203;-56
2021/08/04 02:00:07;;;;;;;3.00;2.80;;;;;22.40;100214.00;;;;2062377;28;20239;-57
2021/08/04 02:01:08;;;;;;;3.20;3.00;;;;;22.40;100208.00;;;;2060197;28;20298;-56
2021/08/04 02:02:19;;;;;;;3.30;2.70;;;;;22.40;100207.00;;;;2065743;28;20450;-57
2021/08/04 02:03:19;;;;;;;3.30;3.00;;;;;22.40;100204.00;;;;2069477;28;20454;-55
2021/08/04 02:04:20;;;;;;;3.80;2.90;;;;;22.50;100203.00;;;;2062464;28;20656;-56
2021/08/04 02:05:20;;;;;;;3.27;2.97;;;;;22.40;100205.00;;;;2069484;28;20217;-55
2021/08/04 02:06:23;;;;;;;3.93;3.53;;;;;22.40;100210.00;;;;2063009;28;20226;-56
2021/08/04 02:07:33;;;;;;;4.68;3.17;;;;;22.40;100205.00;;;;2066476;28;20277;-55
2021/08/04 02:08:42;;;;;;;3.45;3.15;;;;;22.40;100209.00;;;;2062120;28;20207;-54
2021/08/04 02:09:50;;;;;;;4.75;2.90;;;;;22.40;100212.00;;;;2062138;28;20214;-55
2021/08/04 02:11:12;;;;;;;3.17;2.97;;;;;22.40;100203.00;;;;2068868;28;20353;-54
2021/08/04 02:12:12;;;;;;;2.72;2.53;;;;;22.40;100211.00;;;;2062420;28;20244;-55
2021/08/04 02:13:20;;;;;;;3.40;3.00;;;;;22.40;100208.00;;;;2064331;28;20214;-55
2021/08/04 02:14:48;;;;;;;3.28;2.97;;;;;22.40;100209.00;;;;2062212;28;20235;-54
2021/08/04 02:15:49;;;;;;;3.03;2.65;;;;;22.40;100199.00;;;;2058274;28;20215;-55
2021/08/04 02:16:52;;;;;;;2.85;2.60;;;;;22.40;100201.00;;;;2058240;28;20739;-54
2021/08/04 02:18:03;;;;;;;3.25;2.70;;;;;22.40;100198.00;;;;2066264;28;20219;-56
2021/08/04 02:19:26;;;;;;;3.45;3.15;;;;;22.40;100199.00;;;;2054487;28;21080;-55
2021/08/04 02:20:29;;;;;;;3.65;2.92;;;;;22.40;100200.00;;;;2048210;28;20231;-55
2021/08/04 02:21:29;;;;;;;3.55;3.25;;;;;22.40;100203.00;;;;2054834;28;20227;-55
2021/08/04 02:22:32;;;;;;;3.10;2.50;;;;;22.40;100194.00;;;;2053844;28;20211;-56
2021/08/04 02:23:35;;;;;;;3.30;3.00;;;;;22.40;100200.00;;;;2060270;28;20225;-54
2021/08/04 02:24:38;;;;;;;2.95;2.63;;;;;22.40;100199.00;;;;2061449;28;20293;-55
2021/08/04 02:26:17;;;;;;;2.85;2.45;;;;;22.40;100203.00;;;;2054359;28;20239;-55
2021/08/04 02:27:17;;;;;;;3.50;3.20;;;;;22.40;100206.00;;;;2044873;29;20700;-54
2021/08/04 02:28:28;;;;;;;2.97;2.77;;;;;22.40;100190.00;;;;2045469;29;20299;-56
2021/08/04 02:29:33;;;;;;;3.15;2.85;;;;;22.40;100195.00;;;;2043696;28;20213;-55
2021/08/04 02:30:34;;;;;;;2.70;2.50;;;;;22.40;100200.00;;;;2058259;28;20313;-54
2021/08/04 02:31:34;;;;;;;2.70;2.50;;;;;22.40;100195.00;;;;2072153;28;20214;-56
2021/08/04 02:32:35;;;;;;;3.30;2.70;;;;;22.40;100199.00;;;;2087179;28;20200;-54
2021/08/04 02:33:35;;;;;;;2.95;2.60;;;;;22.40;100194.00;;;;2087017;28;20205;-55
2021/08/04 02:34:36;;;;;;;3.67;3.37;;;;;22.40;100198.00;;;;2086895;28;20705;-55
2021/08/04 02:35:36;;;;;;;3.00;2.80;;;;;22.40;100198.00;;;;2087436;28;20765;-56
2021/08/04 02:36:36;;;;;;;3.03;2.80;;;;;22.40;100195.00;;;;2065352;28;20233;-56
2021/08/04 02:37:37;;;;;;;2.93;2.70;;;;;22.40;100197.00;;;;2067895;28;20253;-55
2021/08/04 02:38:38;;;;;;;2.80;2.60;;;;;22.40;100201.00;;;;2070803;28;20218;-55
2021/08/04 02:39:38;;;;;;;3.03;2.83;;;;;22.40;100194.00;;;;2070525;28;20210;-55
2021/08/04 02:40:38;;;;;;;2.97;2.77;;;;;22.40;100192.00;;;;2070410;28;20252;-55
2021/08/04 02:41:39;;;;;;;2.70;2.50;;;;;22.40;100187.00;;;;2064239;28;20211;-55
2021/08/04 02:42:39;;;;;;;3.30;2.97;;;;;22.40;100189.00;;;;2057729;28;20223;-55
2021/08/04 02:43:40;;;;;;;3.10;2.90;;;;;22.40;100186.00;;;;2063104;28;20211;-55
2021/08/04 02:44:41;;;;;;;3.67;2.70;;;;;22.40;100183.00;;;;2054576;28;20690;-55
2021/08/04 02:45:42;;;;;;;2.83;2.63;;;;;22.40;100185.00;;;;2062893;28;20219;-56
2021/08/04 02:46:44;;;;;;;2.30;2.10;;;;;22.40;100188.00;;;;2070788;28;20214;-56
2021/08/04 02:47:44;;;;;;;2.75;2.55;;;;;22.40;100187.00;;;;2062689;28;20654;-55
2021/08/04 02:48:45;;;;;;;2.60;2.37;;;;;22.40;100179.00;;;;2062432;28;20250;-56
2021/08/04 02:49:45;;;;;;;3.27;3.07;;;;;22.40;100189.00;;;;2062230;28;20258;-55
2021/08/04 02:50:47;;;;;;;4.13;3.43;;;;;22.40;100187.00;;;;2063057;28;20218;-54
2021/08/04 02:51:47;;;;;;;2.88;2.67;;;;;22.40;100187.00;;;;2062567;28;20235;-55
2021/08/04 02:52:48;;;;;;;3.13;2.93;;;;;22.40;100184.00;;;;2062504;28;20230;-55
2021/08/04 02:53:55;;;;;;;2.43;2.23;;;;;22.40;100185.00;;;;2069961;28;20213;-55
2021/08/04 02:54:55;;;;;;;3.42;3.13;;;;;22.40;100187.00;;;;2061979;28;20273;-54
2021/08/04 02:55:56;;;;;;;2.77;2.57;;;;;22.40;100186.00;;;;2056551;28;20970;-55
2021/08/04 02:56:56;;;;;;;2.60;2.40;;;;;22.40;100184.00;;;;2070327;28;20218;-56
2021/08/04 02:57:57;;;;;;;3.10;2.90;;;;;22.40;100189.00;;;;2072460;28;20347;-55
2021/08/04 02:58:57;;;;;;;2.70;2.50;;;;;22.40;100184.00;;;;2067915;28;20277;-55
2021/08/04 02:59:57;;;;;;;2.67;2.47;;;;;22.40;100189.00;;;;2062315;28;20215;-55
2021/08/04 03:00:58;;;;;;;2.90;2.60;;;;;22.40;100188.00;;;;2062897;28;20258;-56
2021/08/04 03:01:59;;;;;;;2.90;2.70;;;;;22.40;100188.00;;;;2062497;28;20223;-57
2021/08/04 03:02:59;;;;;;;2.80;2.60;;;;;22.40;100192.00;;;;2062721;28;20234;-56
2021/08/04 03:04:00;;;;;;;3.20;2.90;;;;;22.40;100190.00;;;;2063143;28;20588;-57
2021/08/04 03:05:00;;;;;;;2.57;2.37;;;;;22.40;100183.00;;;;2062419;28;20583;-56
2021/08/04 03:06:01;;;;;;;4.27;2.93;;;;;22.40;100177.00;;;;2062587;28;20226;-55
2021/08/04 03:07:01;;;;;;;3.20;2.90;;;;;22.40;100186.00;;;;2063144;28;20218;-55
2021/08/04 03:08:02;;;;;;;2.83;2.53;;;;;22.40;100185.00;;;;2063038;28;20211;-56
2021/08/04 03:09:03;;;;;;;3.40;3.03;;;;;22.40;100187.00;;;;2062620;28;20280;-55
2021/08/04 03:10:04;;;;;;;2.60;2.40;;;;;22.40;100187.00;;;;2062805;28;20265;-54
2021/08/04 03:11:05;;;;;;;2.65;2.45;;;;;22.40;100183.00;;;;2062456;28;20201;-54
2021/08/04 03:12:06;;;;;;;2.97;2.70;;;;;22.40;100183.00;;;;2057619;28;20211;-55
2021/08/04 03:13:07;;;;;;;3.10;2.90;;;;;22.40;100186.00;;;;2061521;28;20289;-54
2021/08/04 03:14:07;;;;;;;4.30;2.73;;;;;22.40;100184.00;;;;2058095;28;20322;-55
2021/08/04 03:15:08;;;;;;;3.13;2.47;;;;;22.40;100190.00;;;;2054843;28;20285;-56
2021/08/04 03:16:08;;;;;;;3.13;2.13;;;;;22.40;100186.00;;;;2064248;28;20209;-54
2021/08/04 03:17:08;;;;;;;2.47;2.27;;;;;22.40;100188.00;;;;2063127;28;20230;-54
2021/08/04 03:18:09;;;;;;;2.77;2.47;;;;;22.40;100189.00;;;;2068223;28;20210;-55
2021/08/04 03:19:09;;;;;;;2.50;2.30;;;;;22.40;100190.00;;;;2065876;28;20683;-55
2021/08/04 03:20:10;;;;;;;2.60;2.40;;;;;22.40;100185.00;;;;2063082;28;20573;-55
2021/08/04 03:21:10;;;;;;;3.50;3.20;;;;;22.40;100186.00;;;;2054652;28;20222;-55
2021/08/04 03:22:11;;;;;;;2.70;2.50;;;;;22.40;100192.00;;;;2062567;28;20226;-55
2021/08/04 03:23:11;;;;;;;2.70;2.50;;;;;22.30;100189.00;;;;2057586;28;20308;-55
2021/08/04 03:24:12;;;;;;;2.80;2.60;;;;;22.40;100192.00;;;;2058502;28;20273;-55
2021/08/04 03:25:13;;;;;;;3.07;2.77;;;;;22.40;100187.00;;;;2065328;28;20225;-54
2021/08/04 03:26:13;;;;;;;2.75;2.55;;;;;22.40;100194.00;;;;2066034;28;20209;-55
2021/08/04 03:27:14;;;;;;;3.07;2.77;;;;;22.40;100190.00;;;;2064224;28;20231;-56
2021/08/04 03:28:14;;;;;;;3.10;2.60;;;;;22.40;100197.00;;;;2065358;28;20207;-55
2021/08/04 03:29:15;;;;;;;3.27;2.93;;;;;22.40;100194.00;;;;2066718;28;20271;-54
2021/08/04 03:30:15;;;;;;;3.07;2.87;;;;;22.40;100195.00;;;;2063994;28;20820;-55
2021/08/04 03:31:16;;;;;;;3.63;2.90;;;;;22.40;100196.00;;;;2065097;28;20207;-55
2021/08/04 03:32:16;;;;;;;2.40;2.20;;;;;22.40;100197.00;;;;2066985;28;20210;-56
2021/08/04 03:33:17;;;;;;;2.80;2.50;;;;;22.40;100197.00;;;;2063635;28;20202;-55
2021/08/04 03:34:17;;;;;;;3.57;3.07;;;;;22.40;100190.00;;;;2070130;28;20285;-57
2021/08/04 03:35:17;;;;;;;2.60;2.40;;;;;22.40;100188.00;;;;2060540;28;20217;-55
2021/08/04 03:36:18;;;;;;;2.80;2.47;;;;;22.30;100200.00;;;;2056483;28;20270;-55
2021/08/04 03:37:18;;;;;;;2.80;2.60;;;;;22.30;100191.00;;;;2056761;28;20223;-56
2021/08/04 03:38:19;;;;;;;2.90;2.47;;;;;22.30;100202.00;;;;2053073;28;20538;-55
2021/08/04 03:39:19;;;;;;;3.43;2.30;;;;;22.30;100194.00;;;;2056245;28;20235;-56
2021/08/04 03:40:19;;;;;;;2.70;2.50;;;;;22.40;100197.00;;;;2055997;28;20238;-57
2021/08/04 03:41:20;;;;;;;2.73;2.53;;;;;22.40;100193.00;;;;2057962;28;20215;-55
2021/08/04 03:42:20;;;;;;;2.60;2.40;;;;;22.30;100203.00;;;;2055618;28;20208;-56
2021/08/04 03:43:20;;;;;;;3.00;2.70;;;;;22.30;100187.00;;;;2056499;28;20211;-56
2021/08/04 03:44:21;;;;;;;2.37;2.17;;;;;22.40;100189.00;;;;2048986;28;20703;-56
2021/08/04 03:45:21;;;;;;;2.53;2.33;;;;;22.40;100193.00;;;;2060659;28;20203;-55
2021/08/04 03:46:22;;;;;;;2.77;2.57;;;;;22.30;100198.00;;;;2054908;28;20307;-55
2021/08/04 03:47:22;;;;;;;2.40;2.20;;;;;22.40;100206.00;;;;2054519;28;20222;-55
2021/08/04 03:48:22;;;;;;;2.60;2.40;;;;;22.40;100194.00;;;;2055622;28;20214;-56
2021/08/04 03:49:23;;;;;;;2.77;2.50;;;;;22.40;100195.00;;;;2055739;28;20696;-56
2021/08/04 03:50:23;;;;;;;3.10;2.80;;;;;22.30;100190.00;;;;2060219;28;20564;-54
2021/08/04 03:51:24;;;;;;;2.90;2.70;;;;;22.30;100195.00;;;;2056024;28;20212;-55
2021/08/04 03:52:24;;;;;;;2.77;2.57;;;;;22.30;100196.00;;;;2058434;28;20692;-55
2021/08/04 03:53:25;;;;;;;2.63;2.43;;;;;22.30;100190.00;;;;2063679;28;20222;-56
2021/08/04 03:54:25;;;;;;;2.07;1.97;;;;;22.30;100196.00;;;;2066189;28;20226;-55
2021/08/04 03:55:26;;;;;;;2.57;2.37;;;;;22.30;100195.00;;;;2054529;28;20215;-55
2021/08/04 03:56:26;;;;;;;2.60;2.40;;;;;22.40;100193.00;;;;2058006;28;20214;-55
2021/08/04 03:57:26;;;;;;;2.77;2.57;;;;;22.30;100201.00;;;;2053389;28;20224;-55
2021/08/04 03:58:28;;;;;;;2.63;2.43;;;;;22.30;100191.00;;;;2056450;28;20219;-56
2021/08/04 03:59:28;;;;;;;3.13;2.88;;;;;22.40;100192.00;;;;2057585;28;20353;-55
2021/08/04 04:00:29;;;;;;;2.70;2.40;;;;;22.30;100192.00;;;;2055377;28;20227;-58
2021/08/04 04:01:29;;;;;;;3.00;2.80;;;;;22.30;100202.00;;;;2057269;28;20220;-56
2021/08/04 04:02:30;;;;;;;2.93;2.63;;;;;22.30;100195.00;;;;2057404;28;20695;-56
2021/08/04 04:03:30;;;;;;;2.70;2.47;;;;;22.30;100198.00;;;;2055540;28;20841;-56
2021/08/04 04:04:31;;;;;;;2.90;2.60;;;;;22.40;100200.00;;;;2054128;28;20294;-56
2021/08/04 04:05:31;;;;;;;2.57;2.37;;;;;22.30;100197.00;;;;2061055;28;20215;-57
2021/08/04 04:06:32;;;;;;;2.43;2.23;;;;;22.30;100194.00;;;;2055501;28;20262;-55
2021/08/04 04:07:32;;;;;;;2.83;2.63;;;;;22.30;100195.00;;;;2057864;28;20218;-55
2021/08/04 04:08:32;;;;;;;2.57;2.37;;;;;22.40;100206.00;;;;2054488;28;20226;-55
2021/08/04 04:09:34;;;;;;;2.90;2.70;;;;;22.30;100206.00;;;;2054671;28;20703;-55
2021/08/04 04:10:34;;;;;;;2.50;2.30;;;;;22.30;100202.00;;;;2059785;28;20211;-55
2021/08/04 04:11:36;;;;;;;2.77;2.57;;;;;22.30;100202.00;;;;2056465;28;20211;-55
2021/08/04 04:12:36;;;;;;;2.58;2.13;;;;;22.30;100205.00;;;;2058399;28;20219;-56
2021/08/04 04:13:37;;;;;;;2.70;2.50;;;;;22.30;100202.00;;;;2055846;28;20219;-55
2021/08/04 04:14:38;;;;;;;2.33;2.13;;;;;22.40;100207.00;;;;2056242;28;20220;-57
2021/08/04 04:15:38;;;;;;;2.67;2.47;;;;;22.40;100210.00;;;;2056230;28;20813;-56
2021/08/04 04:16:38;;;;;;;3.33;2.60;;;;;22.30;100208.00;;;;2056012;28;20285;-56
2021/08/04 04:17:39;;;;;;;2.60;2.40;;;;;22.30;100210.00;;;;2056209;28;20704;-55
2021/08/04 04:18:39;;;;;;;2.47;2.27;;;;;22.40;100210.00;;;;2056305;28;20219;-55
2021/08/04 04:19:40;;;;;;;3.07;2.87;;;;;22.40;100206.00;;;;2055159;28;20322;-56
2021/08/04 04:20:40;;;;;;;3.00;2.70;;;;;22.40;100207.00;;;;2055472;28;20339;-56
2021/08/04 04:21:40;;;;;;;2.33;2.13;;;;;22.30;100208.00;;;;2055629;28;20266;-56
2021/08/04 04:22:44;;;;;;;2.37;2.17;;;;;22.40;100213.00;;;;2061577;28;20211;-54
2021/08/04 04:23:44;;;;;;;2.80;2.60;;;;;22.40;100212.00;;;;2067594;28;20218;-56
2021/08/04 04:24:45;;;;;;;2.80;2.60;;;;;22.30;100212.00;;;;2063849;28;20218;-56
2021/08/04 04:25:45;;;;;;;2.83;2.10;;;;;22.30;100216.00;;;;2071629;28;20214;-56
2021/08/04 04:26:45;;;;;;;2.90;2.70;;;;;22.30;100224.00;;;;2061683;28;20226;-55
2021/08/04 04:27:46;;;;;;;2.80;2.60;;;;;22.30;100211.00;;;;2056470;28;20207;-56
2021/08/04 04:28:46;;;;;;;2.60;2.40;;;;;22.30;100210.00;;;;2062950;28;20217;-56
2021/08/04 04:29:47;;;;;;;2.70;2.07;;;;;22.30;100224.00;;;;2068255;28;20683;-55
2021/08/04 04:30:47;;;;;;;3.03;2.77;;;;;22.30;100220.00;;;;2063254;28;20562;-55
2021/08/04 04:31:47;;;;;;;2.60;2.40;;;;;22.40;100211.00;;;;2058845;28;21058;-54
2021/08/04 04:32:48;;;;;;;2.57;2.37;;;;;22.40;100226.00;;;;2056677;28;20724;-57
2021/08/04 04:33:48;;;;;;;2.83;2.63;;;;;22.40;100227.00;;;;2059130;28;20611;-56
2021/08/04 04:34:49;;;;;;;2.43;2.23;;;;;22.30;100215.00;;;;2057019;28;20684;-55
2021/08/04 04:35:49;;;;;;;2.40;2.20;;;;;22.30;100217.00;;;;2070937;28;20237;-56
2021/08/04 04:36:50;;;;;;;2.73;2.47;;;;;22.30;100219.00;;;;2066891;28;20241;-55
2021/08/04 04:37:50;;;;;;;2.60;2.40;;;;;22.30;100228.00;;;;2063308;28;20215;-55
2021/08/04 04:38:50;;;;;;;2.70;2.50;;;;;22.30;100228.00;;;;2056047;28;20294;-55
2021/08/04 04:39:51;;;;;;;2.70;2.50;;;;;22.30;100216.00;;;;2062112;28;20223;-56
2021/08/04 04:40:51;;;;;;;2.60;2.40;;;;;22.30;100225.00;;;;2063995;28;20219;-55
2021/08/04 04:41:52;;;;;;;3.00;2.80;;;;;22.30;100221.00;;;;2061995;28;20219;-56
2021/08/04 04:42:53;;;;;;;2.20;2.00;;;;;22.30;100226.00;;;;2063015;28;20219;-56
2021/08/04 04:43:53;;;;;;;2.23;2.03;;;;;22.30;100237.00;;;;2061809;28;20310;-56
2021/08/04 04:44:54;;;;;;;2.77;2.57;;;;;22.30;100229.00;;;;2058901;28;20214;-55
2021/08/04 04:45:54;;;;;;;2.60;2.40;;;;;22.30;100240.00;;;;2057437;28;20211;-55
2021/08/04 04:46:54;;;;;;;3.00;2.70;;;;;22.30;100232.00;;;;2062898;28;20218;-55
2021/08/04 04:47:55;;;;;;;2.63;2.43;;;;;22.30;100242.00;;;;2056339;28;20208;-56
2021/08/04 04:48:55;;;;;;;2.30;2.10;;;;;22.30;100229.00;;;;2060373;28;20334;-55
2021/08/04 04:49:55;;;;;;;2.17;2.07;;;;;22.30;100231.00;;;;2056180;28;20278;-55
2021/08/04 04:50:56;;;;;;;2.40;2.17;;;;;22.30;100232.00;;;;2059779;28;20322;-54
2021/08/04 04:51:56;;;;;;;2.47;2.27;;;;;22.30;100237.00;;;;2056330;28;20212;-56
2021/08/04 04:52:56;;;;;;;2.40;2.13;;;;;22.30;100234.00;;;;2060099;28;20210;-55
2021/08/04 04:53:57;;;;;;;2.73;2.53;;;;;22.30;100232.00;;;;2057577;28;20216;-56
2021/08/04 04:54:57;;;;;;;2.37;2.17;;;;;22.30;100243.00;;;;2067984;28;20221;-56
2021/08/04 04:55:58;;;;;;;3.30;2.63;;;;;22.30;100231.00;;;;2065833;28;20688;-57
2021/08/04 04:56:58;;;;;;;2.57;2.37;;;;;22.30;100230.00;;;;2066634;28;20222;-56
2021/08/04 04:57:58;;;;;;;3.30;2.63;;;;;22.30;100240.00;;;;2068192;28;20218;-55
2021/08/04 04:58:59;;;;;;;2.80;2.60;;;;;22.30;100234.00;;;;2057896;28;20684;-56
2021/08/04 04:59:59;;;;;;;2.70;2.50;;;;;22.30;100241.00;;;;2063088;28;20705;-56
2021/08/04 05:01:00;;;;;;;2.93;2.70;;;;;22.30;100247.00;;;;2062924;28;20711;-56
2021/08/04 05:02:00;;;;;;;2.67;2.40;;;;;22.30;100241.00;;;;2058526;28;20247;-55
2021/08/04 05:03:00;;;;;;;2.60;2.40;;;;;22.30;100245.00;;;;2057943;28;20234;-56
2021/08/04 05:04:01;;;;;;;2.80;2.60;;;;;22.30;100240.00;;;;2056085;28;20228;-55
2021/08/04 05:05:01;;;;;;;2.77;2.57;;;;;22.30;100246.00;;;;2065344;28;20316;-56
2021/08/04 05:06:01;;;;;;;2.57;2.37;;;;;22.30;100240.00;;;;2070850;28;20334;-56